Terminal Aerodrome Forecast
Issued by NWS Bismarck, ND

Home | Current Version | Previous Version | Graphics & Text | Print | Product List | Glossary On
Versions: 1 2 3 4 5 6 7 8 9 10 11 12 13 14 15 16 17 18
000
FTUS43 KBIS 020307 AAA
TAFISN
TAF AMD
KISN 020307Z 0203/0224 36015G24KT P6SM SKC
     FM020500 35010KT P6SM SKC
     FM021600 34013G20KT P6SM SKC=

USA.gov is the U.S. government's official web portal to all federal, state and local government web resources and services.